sensor_id;sensor_type;location;lat;lon;timestamp;P1;durP1;ratioP1;P2;durP2;ratioP2
9007;SDS011;62813;51.424;6.762;2022-08-25T00:01:23;5.27;;;3.00;;
9007;SDS011;62813;51.424;6.762;2022-08-25T00:03:55;3.67;;;2.93;;
9007;SDS011;62813;51.424;6.762;2022-08-25T00:06:23;4.77;;;3.00;;
9007;SDS011;62813;51.424;6.762;2022-08-25T00:08:50;5.90;;;3.27;;
9007;SDS011;62813;51.424;6.762;2022-08-25T00:11:18;5.50;;;3.20;;
9007;SDS011;62813;51.424;6.762;2022-08-25T00:13:51;5.93;;;3.00;;
9007;SDS011;62813;51.424;6.762;2022-08-25T00:16:20;4.97;;;3.30;;
9007;SDS011;62813;51.424;6.762;2022-08-25T00:18:52;6.97;;;3.30;;
9007;SDS011;62813;51.424;6.762;2022-08-25T00:21:22;4.37;;;3.60;;
9007;SDS011;62813;51.424;6.762;2022-08-25T00:23:49;6.87;;;3.60;;
9007;SDS011;62813;51.424;6.762;2022-08-25T00:26:16;5.87;;;3.13;;
9007;SDS011;62813;51.424;6.762;2022-08-25T00:28:43;4.70;;;3.17;;
9007;SDS011;62813;51.424;6.762;2022-08-25T00:31:11;7.93;;;3.23;;
9007;SDS011;62813;51.424;6.762;2022-08-25T00:33:40;5.37;;;3.10;;
9007;SDS011;62813;51.424;6.762;2022-08-25T00:36:08;6.87;;;3.60;;
9007;SDS011;62813;51.424;6.762;2022-08-25T00:38:38;3.40;;;3.10;;
9007;SDS011;62813;51.424;6.762;2022-08-25T00:41:05;5.13;;;3.23;;
9007;SDS011;62813;51.424;6.762;2022-08-25T00:43:47;3.90;;;3.50;;
9007;SDS011;62813;51.424;6.762;2022-08-25T00:46:21;3.63;;;3.23;;
9007;SDS011;62813;51.424;6.762;2022-08-25T00:48:52;7.23;;;3.03;;
9007;SDS011;62813;51.424;6.762;2022-08-25T00:51:28;5.30;;;3.40;;
9007;SDS011;62813;51.424;6.762;2022-08-25T00:54:02;4.13;;;3.47;;
9007;SDS011;62813;51.424;6.762;2022-08-25T00:56:31;5.13;;;3.20;;
9007;SDS011;62813;51.424;6.762;2022-08-25T00:58:57;7.13;;;3.70;;
9007;SDS011;62813;51.424;6.762;2022-08-25T01:01:25;5.23;;;2.90;;
9007;SDS011;62813;51.424;6.762;2022-08-25T01:03:52;7.40;;;3.33;;
9007;SDS011;62813;51.424;6.762;2022-08-25T01:06:20;4.00;;;3.07;;
9007;SDS011;62813;51.424;6.762;2022-08-25T01:08:47;4.57;;;3.53;;
9007;SDS011;62813;51.424;6.762;2022-08-25T01:11:14;3.77;;;3.10;;
9007;SDS011;62813;51.424;6.762;2022-08-25T01:13:44;4.63;;;3.47;;
9007;SDS011;62813;51.424;6.762;2022-08-25T01:16:16;4.17;;;3.43;;
9007;SDS011;62813;51.424;6.762;2022-08-25T01:21:23;3.77;;;3.37;;
9007;SDS011;62813;51.424;6.762;2022-08-25T01:23:52;3.83;;;3.37;;
9007;SDS011;62813;51.424;6.762;2022-08-25T01:26:22;4.07;;;3.43;;
9007;SDS011;62813;51.424;6.762;2022-08-25T01:28:56;4.57;;;3.60;;
9007;SDS011;62813;51.424;6.762;2022-08-25T01:31:43;4.70;;;3.10;;
9007;SDS011;62813;51.424;6.762;2022-08-25T01:34:10;5.33;;;3.30;;
9007;SDS011;62813;51.424;6.762;2022-08-25T01:36:38;5.20;;;3.10;;
9007;SDS011;62813;51.424;6.762;2022-08-25T01:39:07;4.23;;;3.33;;
9007;SDS011;62813;51.424;6.762;2022-08-25T01:44:11;5.70;;;3.10;;
9007;SDS011;62813;51.424;6.762;2022-08-25T01:46:41;4.80;;;3.03;;
9007;SDS011;62813;51.424;6.762;2022-08-25T01:49:08;4.57;;;2.77;;
9007;SDS011;62813;51.424;6.762;2022-08-25T01:51:41;6.07;;;3.40;;
9007;SDS011;62813;51.424;6.762;2022-08-25T01:54:12;6.43;;;3.40;;
9007;SDS011;62813;51.424;6.762;2022-08-25T01:56:38;5.20;;;3.50;;
9007;SDS011;62813;51.424;6.762;2022-08-25T01:59:05;4.93;;;3.40;;
9007;SDS011;62813;51.424;6.762;2022-08-25T02:01:32;3.53;;;3.23;;
9007;SDS011;62813;51.424;6.762;2022-08-25T02:03:58;6.30;;;3.10;;
9007;SDS011;62813;51.424;6.762;2022-08-25T02:06:27;4.63;;;3.13;;
9007;SDS011;62813;51.424;6.762;2022-08-25T02:09:01;3.67;;;3.30;;
9007;SDS011;62813;51.424;6.762;2022-08-25T02:11:34;5.73;;;3.50;;
9007;SDS011;62813;51.424;6.762;2022-08-25T02:14:03;4.10;;;3.10;;
9007;SDS011;62813;51.424;6.762;2022-08-25T02:16:35;5.23;;;3.50;;
9007;SDS011;62813;51.424;6.762;2022-08-25T02:19:05;3.70;;;3.27;;
9007;SDS011;62813;51.424;6.762;2022-08-25T02:21:33;5.40;;;3.37;;
9007;SDS011;62813;51.424;6.762;2022-08-25T02:24:01;5.23;;;3.60;;
9007;SDS011;62813;51.424;6.762;2022-08-25T02:26:28;6.20;;;3.60;;
9007;SDS011;62813;51.424;6.762;2022-08-25T02:28:55;9.43;;;3.30;;
9007;SDS011;62813;51.424;6.762;2022-08-25T02:31:22;4.50;;;3.50;;
9007;SDS011;62813;51.424;6.762;2022-08-25T02:33:50;6.47;;;3.20;;
9007;SDS011;62813;51.424;6.762;2022-08-25T02:36:18;4.07;;;3.23;;
9007;SDS011;62813;51.424;6.762;2022-08-25T02:38:45;10.63;;;3.60;;
9007;SDS011;62813;51.424;6.762;2022-08-25T02:41:16;9.23;;;3.27;;
9007;SDS011;62813;51.424;6.762;2022-08-25T02:43:45;4.90;;;3.37;;
9007;SDS011;62813;51.424;6.762;2022-08-25T02:46:14;4.63;;;2.97;;
9007;SDS011;62813;51.424;6.762;2022-08-25T02:48:43;5.40;;;3.07;;
9007;SDS011;62813;51.424;6.762;2022-08-25T02:51:11;7.00;;;3.20;;
9007;SDS011;62813;51.424;6.762;2022-08-25T02:53:39;3.50;;;3.03;;
9007;SDS011;62813;51.424;6.762;2022-08-25T02:56:08;5.37;;;3.50;;
9007;SDS011;62813;51.424;6.762;2022-08-25T02:58:36;4.90;;;3.10;;
9007;SDS011;62813;51.424;6.762;2022-08-25T03:01:04;4.73;;;3.20;;
9007;SDS011;62813;51.424;6.762;2022-08-25T03:03:32;4.20;;;3.27;;
9007;SDS011;62813;51.424;6.762;2022-08-25T03:06:06;6.23;;;3.40;;
9007;SDS011;62813;51.424;6.762;2022-08-25T03:08:34;4.10;;;3.00;;
9007;SDS011;62813;51.424;6.762;2022-08-25T03:11:02;4.73;;;3.10;;
9007;SDS011;62813;51.424;6.762;2022-08-25T03:13:29;5.80;;;3.43;;
9007;SDS011;62813;51.424;6.762;2022-08-25T03:15:55;4.03;;;3.23;;
9007;SDS011;62813;51.424;6.762;2022-08-25T03:18:22;5.00;;;3.23;;
9007;SDS011;62813;51.424;6.762;2022-08-25T03:20:49;6.50;;;3.60;;
9007;SDS011;62813;51.424;6.762;2022-08-25T03:23:16;5.40;;;3.47;;
9007;SDS011;62813;51.424;6.762;2022-08-25T03:25:43;7.33;;;3.40;;
9007;SDS011;62813;51.424;6.762;2022-08-25T03:28:28;5.93;;;3.73;;
9007;SDS011;62813;51.424;6.762;2022-08-25T03:30:58;4.60;;;3.43;;
9007;SDS011;62813;51.424;6.762;2022-08-25T03:33:27;6.10;;;3.40;;
9007;SDS011;62813;51.424;6.762;2022-08-25T03:35:55;3.90;;;3.10;;
9007;SDS011;62813;51.424;6.762;2022-08-25T03:38:23;6.87;;;3.37;;
9007;SDS011;62813;51.424;6.762;2022-08-25T03:40:50;5.33;;;3.53;;
9007;SDS011;62813;51.424;6.762;2022-08-25T03:43:18;4.83;;;3.27;;
9007;SDS011;62813;51.424;6.762;2022-08-25T03:45:46;6.23;;;3.47;;
9007;SDS011;62813;51.424;6.762;2022-08-25T03:48:13;3.80;;;3.27;;
9007;SDS011;62813;51.424;6.762;2022-08-25T03:50:46;5.87;;;3.43;;
9007;SDS011;62813;51.424;6.762;2022-08-25T03:53:16;5.60;;;3.43;;
9007;SDS011;62813;51.424;6.762;2022-08-25T03:55:43;4.40;;;3.23;;
9007;SDS011;62813;51.424;6.762;2022-08-25T03:58:10;9.73;;;3.90;;
9007;SDS011;62813;51.424;6.762;2022-08-25T04:00:37;5.07;;;3.67;;
9007;SDS011;62813;51.424;6.762;2022-08-25T04:03:05;4.63;;;3.07;;
9007;SDS011;62813;51.424;6.762;2022-08-25T04:05:31;5.83;;;3.67;;
9007;SDS011;62813;51.424;6.762;2022-08-25T04:07:59;4.77;;;3.67;;
9007;SDS011;62813;51.424;6.762;2022-08-25T04:10:27;4.53;;;3.53;;
9007;SDS011;62813;51.424;6.762;2022-08-25T04:12:55;6.03;;;3.20;;
9007;SDS011;62813;51.424;6.762;2022-08-25T04:15:22;4.00;;;3.33;;
9007;SDS011;62813;51.424;6.762;2022-08-25T04:17:55;3.87;;;3.30;;
9007;SDS011;62813;51.424;6.762;2022-08-25T04:20:24;7.17;;;4.03;;
9007;SDS011;62813;51.424;6.762;2022-08-25T04:22:51;6.23;;;3.87;;
9007;SDS011;62813;51.424;6.762;2022-08-25T04:25:18;4.90;;;3.77;;
9007;SDS011;62813;51.424;6.762;2022-08-25T04:27:44;7.77;;;4.03;;
9007;SDS011;62813;51.424;6.762;2022-08-25T04:30:11;6.23;;;4.30;;
9007;SDS011;62813;51.424;6.762;2022-08-25T04:32:38;7.63;;;4.30;;
9007;SDS011;62813;51.424;6.762;2022-08-25T04:35:05;6.33;;;4.50;;
9007;SDS011;62813;51.424;6.762;2022-08-25T04:37:33;7.03;;;3.90;;
9007;SDS011;62813;51.424;6.762;2022-08-25T04:40:00;6.23;;;4.27;;
9007;SDS011;62813;51.424;6.762;2022-08-25T04:42:27;6.27;;;4.07;;
9007;SDS011;62813;51.424;6.762;2022-08-25T04:44:53;7.00;;;4.80;;
9007;SDS011;62813;51.424;6.762;2022-08-25T04:47:21;7.37;;;4.70;;
9007;SDS011;62813;51.424;6.762;2022-08-25T04:49:48;7.10;;;4.20;;
9007;SDS011;62813;51.424;6.762;2022-08-25T04:52:14;10.17;;;4.57;;
9007;SDS011;62813;51.424;6.762;2022-08-25T04:54:41;5.53;;;4.37;;
9007;SDS011;62813;51.424;6.762;2022-08-25T04:57:09;9.40;;;4.60;;
9007;SDS011;62813;51.424;6.762;2022-08-25T04:59:35;7.07;;;5.30;;
9007;SDS011;62813;51.424;6.762;2022-08-25T05:02:02;8.13;;;4.90;;
9007;SDS011;62813;51.424;6.762;2022-08-25T05:04:31;7.93;;;4.60;;
9007;SDS011;62813;51.424;6.762;2022-08-25T05:07:00;7.37;;;4.70;;
9007;SDS011;62813;51.424;6.762;2022-08-25T05:09:27;9.93;;;5.27;;
9007;SDS011;62813;51.424;6.762;2022-08-25T05:11:57;6.17;;;4.87;;
9007;SDS011;62813;51.424;6.762;2022-08-25T05:14:24;7.47;;;6.20;;
9007;SDS011;62813;51.424;6.762;2022-08-25T05:16:52;9.73;;;5.90;;
9007;SDS011;62813;51.424;6.762;2022-08-25T05:19:21;9.73;;;6.43;;
9007;SDS011;62813;51.424;6.762;2022-08-25T05:21:49;11.83;;;6.07;;
9007;SDS011;62813;51.424;6.762;2022-08-25T05:24:17;9.97;;;5.50;;
9007;SDS011;62813;51.424;6.762;2022-08-25T05:26:44;15.00;;;6.00;;
9007;SDS011;62813;51.424;6.762;2022-08-25T05:29:11;8.90;;;5.40;;
9007;SDS011;62813;51.424;6.762;2022-08-25T05:31:38;7.70;;;5.33;;
9007;SDS011;62813;51.424;6.762;2022-08-25T05:34:10;10.50;;;6.00;;
9007;SDS011;62813;51.424;6.762;2022-08-25T05:36:39;8.80;;;5.60;;
9007;SDS011;62813;51.424;6.762;2022-08-25T05:39:09;10.37;;;5.20;;
9007;SDS011;62813;51.424;6.762;2022-08-25T05:41:36;9.73;;;5.60;;
9007;SDS011;62813;51.424;6.762;2022-08-25T05:44:03;8.17;;;5.13;;
9007;SDS011;62813;51.424;6.762;2022-08-25T05:46:30;11.53;;;5.50;;
9007;SDS011;62813;51.424;6.762;2022-08-25T05:48:57;11.97;;;5.97;;
9007;SDS011;62813;51.424;6.762;2022-08-25T05:51:24;12.60;;;5.90;;
9007;SDS011;62813;51.424;6.762;2022-08-25T05:53:52;15.87;;;6.07;;
9007;SDS011;62813;51.424;6.762;2022-08-25T05:56:19;12.53;;;6.23;;
9007;SDS011;62813;51.424;6.762;2022-08-25T05:58:46;13.20;;;5.70;;
9007;SDS011;62813;51.424;6.762;2022-08-25T06:01:17;16.33;;;6.17;;
9007;SDS011;62813;51.424;6.762;2022-08-25T06:04:10;11.53;;;5.43;;
9007;SDS011;62813;51.424;6.762;2022-08-25T06:06:37;17.77;;;5.67;;
9007;SDS011;62813;51.424;6.762;2022-08-25T06:09:04;13.03;;;6.00;;
9007;SDS011;62813;51.424;6.762;2022-08-25T06:11:32;16.17;;;5.83;;
9007;SDS011;62813;51.424;6.762;2022-08-25T06:13:58;13.37;;;5.33;;
9007;SDS011;62813;51.424;6.762;2022-08-25T06:16:25;11.70;;;5.80;;
9007;SDS011;62813;51.424;6.762;2022-08-25T06:18:52;11.83;;;5.60;;
9007;SDS011;62813;51.424;6.762;2022-08-25T06:21:18;17.03;;;6.43;;
9007;SDS011;62813;51.424;6.762;2022-08-25T06:23:45;13.80;;;5.50;;
9007;SDS011;62813;51.424;6.762;2022-08-25T06:26:14;13.20;;;5.70;;
9007;SDS011;62813;51.424;6.762;2022-08-25T06:28:46;9.03;;;5.63;;
9007;SDS011;62813;51.424;6.762;2022-08-25T06:31:12;14.27;;;6.03;;
9007;SDS011;62813;51.424;6.762;2022-08-25T06:33:39;14.10;;;5.80;;
9007;SDS011;62813;51.424;6.762;2022-08-25T06:36:06;9.07;;;5.03;;
9007;SDS011;62813;51.424;6.762;2022-08-25T06:38:33;10.00;;;6.10;;
9007;SDS011;62813;51.424;6.762;2022-08-25T06:41:02;11.77;;;5.50;;
9007;SDS011;62813;51.424;6.762;2022-08-25T06:43:29;9.63;;;5.57;;
9007;SDS011;62813;51.424;6.762;2022-08-25T06:45:58;9.07;;;5.60;;
9007;SDS011;62813;51.424;6.762;2022-08-25T06:48:36;14.80;;;5.73;;
9007;SDS011;62813;51.424;6.762;2022-08-25T06:51:04;12.97;;;5.43;;
9007;SDS011;62813;51.424;6.762;2022-08-25T06:53:35;11.40;;;6.30;;
9007;SDS011;62813;51.424;6.762;2022-08-25T06:56:02;10.20;;;5.87;;
9007;SDS011;62813;51.424;6.762;2022-08-25T06:58:33;13.13;;;6.50;;
9007;SDS011;62813;51.424;6.762;2022-08-25T07:01:09;16.73;;;6.23;;
9007;SDS011;62813;51.424;6.762;2022-08-25T07:03:45;15.80;;;5.93;;
9007;SDS011;62813;51.424;6.762;2022-08-25T07:06:12;11.77;;;5.50;;
9007;SDS011;62813;51.424;6.762;2022-08-25T07:08:43;9.80;;;5.23;;
9007;SDS011;62813;51.424;6.762;2022-08-25T07:11:11;15.27;;;5.83;;
9007;SDS011;62813;51.424;6.762;2022-08-25T07:13:43;13.93;;;5.70;;
9007;SDS011;62813;51.424;6.762;2022-08-25T07:16:11;11.87;;;5.40;;
9007;SDS011;62813;51.424;6.762;2022-08-25T07:18:38;13.83;;;5.40;;
9007;SDS011;62813;51.424;6.762;2022-08-25T07:21:04;9.87;;;5.47;;
9007;SDS011;62813;51.424;6.762;2022-08-25T07:23:34;10.73;;;5.33;;
9007;SDS011;62813;51.424;6.762;2022-08-25T07:26:11;9.33;;;5.60;;
9007;SDS011;62813;51.424;6.762;2022-08-25T07:29:00;7.20;;;5.20;;
9007;SDS011;62813;51.424;6.762;2022-08-25T07:31:28;10.27;;;5.63;;
9007;SDS011;62813;51.424;6.762;2022-08-25T07:33:55;9.83;;;5.30;;
9007;SDS011;62813;51.424;6.762;2022-08-25T07:36:41;9.80;;;5.03;;
9007;SDS011;62813;51.424;6.762;2022-08-25T07:39:08;12.83;;;5.53;;
9007;SDS011;62813;51.424;6.762;2022-08-25T07:41:37;8.77;;;4.53;;
9007;SDS011;62813;51.424;6.762;2022-08-25T07:44:06;8.50;;;4.80;;
9007;SDS011;62813;51.424;6.762;2022-08-25T07:46:33;6.97;;;4.93;;
9007;SDS011;62813;51.424;6.762;2022-08-25T07:49:00;11.43;;;5.40;;
9007;SDS011;62813;51.424;6.762;2022-08-25T07:51:27;12.23;;;5.43;;
9007;SDS011;62813;51.424;6.762;2022-08-25T07:53:54;15.23;;;5.30;;
9007;SDS011;62813;51.424;6.762;2022-08-25T07:56:21;8.23;;;5.10;;
9007;SDS011;62813;51.424;6.762;2022-08-25T07:58:48;9.00;;;5.10;;
9007;SDS011;62813;51.424;6.762;2022-08-25T08:01:16;5.83;;;4.80;;
9007;SDS011;62813;51.424;6.762;2022-08-25T08:03:44;8.00;;;5.03;;
9007;SDS011;62813;51.424;6.762;2022-08-25T08:06:17;16.77;;;5.43;;
9007;SDS011;62813;51.424;6.762;2022-08-25T08:08:48;8.77;;;4.53;;
9007;SDS011;62813;51.424;6.762;2022-08-25T08:11:21;7.63;;;4.80;;
9007;SDS011;62813;51.424;6.762;2022-08-25T08:13:53;7.87;;;4.97;;
9007;SDS011;62813;51.424;6.762;2022-08-25T08:16:22;11.70;;;4.70;;
9007;SDS011;62813;51.424;6.762;2022-08-25T08:18:50;11.00;;;4.93;;
9007;SDS011;62813;51.424;6.762;2022-08-25T08:21:21;9.07;;;4.97;;
9007;SDS011;62813;51.424;6.762;2022-08-25T08:23:50;9.73;;;5.10;;
9007;SDS011;62813;51.424;6.762;2022-08-25T08:26:24;13.00;;;5.40;;
9007;SDS011;62813;51.424;6.762;2022-08-25T08:29:11;5.83;;;4.43;;
9007;SDS011;62813;51.424;6.762;2022-08-25T08:31:38;6.20;;;4.30;;
9007;SDS011;62813;51.424;6.762;2022-08-25T08:34:13;6.27;;;4.53;;
9007;SDS011;62813;51.424;6.762;2022-08-25T08:36:40;6.50;;;4.50;;
9007;SDS011;62813;51.424;6.762;2022-08-25T08:39:10;7.90;;;5.40;;
9007;SDS011;62813;51.424;6.762;2022-08-25T08:55:43;5.43;;;4.23;;
9007;SDS011;62813;51.424;6.762;2022-08-25T09:01:01;6.60;;;3.83;;
9007;SDS011;62813;51.424;6.762;2022-08-25T09:06:11;4.77;;;4.20;;
9007;SDS011;62813;51.424;6.762;2022-08-25T09:08:43;7.93;;;4.30;;
9007;SDS011;62813;51.424;6.762;2022-08-25T09:17:03;5.40;;;4.20;;
9007;SDS011;62813;51.424;6.762;2022-08-25T09:28:51;6.77;;;4.20;;
9007;SDS011;62813;51.424;6.762;2022-08-25T09:31:30;8.40;;;4.10;;
9007;SDS011;62813;51.424;6.762;2022-08-25T09:33:59;5.13;;;4.47;;
9007;SDS011;62813;51.424;6.762;2022-08-25T09:36:28;8.53;;;4.37;;
9007;SDS011;62813;51.424;6.762;2022-08-25T09:39:02;8.57;;;5.10;;
9007;SDS011;62813;51.424;6.762;2022-08-25T09:41:42;4.77;;;4.23;;
9007;SDS011;62813;51.424;6.762;2022-08-25T09:44:17;4.80;;;4.37;;
9007;SDS011;62813;51.424;6.762;2022-08-25T09:46:54;5.20;;;4.03;;
9007;SDS011;62813;51.424;6.762;2022-08-25T09:49:41;8.80;;;4.90;;
9007;SDS011;62813;51.424;6.762;2022-08-25T09:52:32;7.03;;;4.03;;
9007;SDS011;62813;51.424;6.762;2022-08-25T10:02:39;5.50;;;4.33;;
9007;SDS011;62813;51.424;6.762;2022-08-25T10:05:21;7.60;;;5.00;;
9007;SDS011;62813;51.424;6.762;2022-08-25T10:07:58;7.77;;;4.60;;
9007;SDS011;62813;51.424;6.762;2022-08-25T10:13:21;8.33;;;4.47;;
9007;SDS011;62813;51.424;6.762;2022-08-25T10:21:29;4.70;;;4.20;;
9007;SDS011;62813;51.424;6.762;2022-08-25T10:23:56;5.70;;;4.63;;
9007;SDS011;62813;51.424;6.762;2022-08-25T10:31:56;6.27;;;4.53;;
9007;SDS011;62813;51.424;6.762;2022-08-25T10:40:28;4.87;;;4.37;;
9007;SDS011;62813;51.424;6.762;2022-08-25T10:45:53;4.90;;;4.40;;
9007;SDS011;62813;51.424;6.762;2022-08-25T10:48:40;7.40;;;4.97;;
9007;SDS011;62813;51.424;6.762;2022-08-25T10:54:09;5.20;;;4.53;;
9007;SDS011;62813;51.424;6.762;2022-08-25T10:57:07;5.63;;;4.60;;
9007;SDS011;62813;51.424;6.762;2022-08-25T11:02:33;5.85;;;4.70;;
9007;SDS011;62813;51.424;6.762;2022-08-25T11:08:07;5.05;;;4.22;;
9007;SDS011;62813;51.424;6.762;2022-08-25T11:10:51;5.40;;;4.60;;
9007;SDS011;62813;51.424;6.762;2022-08-25T11:13:27;5.30;;;4.80;;
9007;SDS011;62813;51.424;6.762;2022-08-25T11:16:14;5.20;;;4.70;;
9007;SDS011;62813;51.424;6.762;2022-08-25T11:18:48;4.78;;;4.03;;
9007;SDS011;62813;51.424;6.762;2022-08-25T11:21:22;5.22;;;4.20;;
9007;SDS011;62813;51.424;6.762;2022-08-25T11:27:01;4.50;;;4.10;;
9007;SDS011;62813;51.424;6.762;2022-08-25T11:29:32;4.82;;;4.40;;
9007;SDS011;62813;51.424;6.762;2022-08-25T11:32:04;7.75;;;4.47;;
9007;SDS011;62813;51.424;6.762;2022-08-25T11:34:32;6.30;;;3.83;;
9007;SDS011;62813;51.424;6.762;2022-08-25T11:37:14;4.20;;;3.75;;
9007;SDS011;62813;51.424;6.762;2022-08-25T11:40:03;4.63;;;4.03;;
9007;SDS011;62813;51.424;6.762;2022-08-25T11:45:29;4.25;;;3.85;;
9007;SDS011;62813;51.424;6.762;2022-08-25T11:51:10;4.93;;;3.88;;
9007;SDS011;62813;51.424;6.762;2022-08-25T12:00:34;4.22;;;3.78;;
9007;SDS011;62813;51.424;6.762;2022-08-25T12:02:48;4.82;;;4.07;;
9007;SDS011;62813;51.424;6.762;2022-08-25T12:13:37;4.03;;;3.70;;
9007;SDS011;62813;51.424;6.762;2022-08-25T12:19:24;5.60;;;4.25;;
9007;SDS011;62813;51.424;6.762;2022-08-25T12:33:01;4.57;;;4.00;;
9007;SDS011;62813;51.424;6.762;2022-08-25T12:36:01;6.40;;;3.90;;
9007;SDS011;62813;51.424;6.762;2022-08-25T12:38:43;4.18;;;3.70;;
9007;SDS011;62813;51.424;6.762;2022-08-25T12:41:19;4.30;;;3.90;;
9007;SDS011;62813;51.424;6.762;2022-08-25T12:43:50;4.55;;;4.07;;
9007;SDS011;62813;51.424;6.762;2022-08-25T12:48:59;5.75;;;4.20;;
9007;SDS011;62813;51.424;6.762;2022-08-25T12:57:02;5.70;;;3.65;;
9007;SDS011;62813;51.424;6.762;2022-08-25T12:59:55;3.83;;;3.53;;
9007;SDS011;62813;51.424;6.762;2022-08-25T13:02:48;5.45;;;3.47;;
9007;SDS011;62813;51.424;6.762;2022-08-25T13:05:35;4.45;;;4.03;;
9007;SDS011;62813;51.424;6.762;2022-08-25T13:10:47;6.25;;;3.65;;
9007;SDS011;62813;51.424;6.762;2022-08-25T13:16:21;4.57;;;4.18;;
9007;SDS011;62813;51.424;6.762;2022-08-25T13:18:56;5.95;;;3.83;;
9007;SDS011;62813;51.424;6.762;2022-08-25T13:21:29;6.47;;;3.67;;
9007;SDS011;62813;51.424;6.762;2022-08-25T13:24:04;6.32;;;4.00;;
9007;SDS011;62813;51.424;6.762;2022-08-25T13:26:39;3.92;;;3.55;;
9007;SDS011;62813;51.424;6.762;2022-08-25T13:29:15;4.20;;;3.90;;
9007;SDS011;62813;51.424;6.762;2022-08-25T13:34:24;3.75;;;3.45;;
9007;SDS011;62813;51.424;6.762;2022-08-25T13:37:04;6.45;;;3.95;;
9007;SDS011;62813;51.424;6.762;2022-08-25T13:40:03;5.63;;;4.20;;
9007;SDS011;62813;51.424;6.762;2022-08-25T13:42:53;4.60;;;4.20;;
9007;SDS011;62813;51.424;6.762;2022-08-25T13:45:24;5.53;;;3.75;;
9007;SDS011;62813;51.424;6.762;2022-08-25T13:47:57;5.80;;;3.85;;
9007;SDS011;62813;51.424;6.762;2022-08-25T13:53:12;4.07;;;3.78;;
9007;SDS011;62813;51.424;6.762;2022-08-25T13:58:37;4.72;;;3.97;;
9007;SDS011;62813;51.424;6.762;2022-08-25T14:01:12;6.15;;;4.10;;
9007;SDS011;62813;51.424;6.762;2022-08-25T14:04:22;6.32;;;3.85;;
9007;SDS011;62813;51.424;6.762;2022-08-25T14:07:31;5.03;;;4.28;;
9007;SDS011;62813;51.424;6.762;2022-08-25T14:10:09;6.30;;;4.53;;
9007;SDS011;62813;51.424;6.762;2022-08-25T14:13:06;4.82;;;4.38;;
9007;SDS011;62813;51.424;6.762;2022-08-25T14:15:44;4.82;;;3.88;;
9007;SDS011;62813;51.424;6.762;2022-08-25T14:18:13;5.18;;;3.75;;
9007;SDS011;62813;51.424;6.762;2022-08-25T14:20:46;4.65;;;4.20;;
9007;SDS011;62813;51.424;6.762;2022-08-25T14:23:19;5.07;;;4.60;;
9007;SDS011;62813;51.424;6.762;2022-08-25T14:25:49;7.63;;;4.78;;
9007;SDS011;62813;51.424;6.762;2022-08-25T14:28:20;6.18;;;4.20;;
9007;SDS011;62813;51.424;6.762;2022-08-25T14:30:49;4.43;;;3.75;;
9007;SDS011;62813;51.424;6.762;2022-08-25T14:33:20;5.85;;;4.40;;
9007;SDS011;62813;51.424;6.762;2022-08-25T14:35:52;4.63;;;3.58;;
9007;SDS011;62813;51.424;6.762;2022-08-25T14:38:23;5.07;;;4.20;;
9007;SDS011;62813;51.424;6.762;2022-08-25T14:40:51;4.32;;;4.03;;
9007;SDS011;62813;51.424;6.762;2022-08-25T14:43:19;5.82;;;4.38;;
9007;SDS011;62813;51.424;6.762;2022-08-25T14:45:49;4.53;;;4.13;;
9007;SDS011;62813;51.424;6.762;2022-08-25T14:48:27;5.43;;;4.30;;
9007;SDS011;62813;51.424;6.762;2022-08-25T14:51:20;4.97;;;3.97;;
9007;SDS011;62813;51.424;6.762;2022-08-25T14:53:50;8.13;;;4.03;;
9007;SDS011;62813;51.424;6.762;2022-08-25T14:56:19;4.60;;;3.80;;
9007;SDS011;62813;51.424;6.762;2022-08-25T14:58:45;4.78;;;3.95;;
9007;SDS011;62813;51.424;6.762;2022-08-25T15:01:19;4.60;;;3.58;;
9007;SDS011;62813;51.424;6.762;2022-08-25T15:03:56;6.65;;;3.60;;
9007;SDS011;62813;51.424;6.762;2022-08-25T15:06:27;4.10;;;3.70;;
9007;SDS011;62813;51.424;6.762;2022-08-25T15:08:54;4.35;;;4.00;;
9007;SDS011;62813;51.424;6.762;2022-08-25T15:11:45;7.28;;;4.00;;
9007;SDS011;62813;51.424;6.762;2022-08-25T15:14:16;4.45;;;4.03;;
9007;SDS011;62813;51.424;6.762;2022-08-25T15:16:58;4.07;;;3.67;;
9007;SDS011;62813;51.424;6.762;2022-08-25T15:19:27;5.13;;;3.80;;
9007;SDS011;62813;51.424;6.762;2022-08-25T15:21:54;5.72;;;3.90;;
9007;SDS011;62813;51.424;6.762;2022-08-25T15:24:24;4.38;;;3.90;;
9007;SDS011;62813;51.424;6.762;2022-08-25T15:26:56;4.20;;;3.80;;
9007;SDS011;62813;51.424;6.762;2022-08-25T15:29:26;5.10;;;3.95;;
9007;SDS011;62813;51.424;6.762;2022-08-25T15:31:55;4.60;;;4.20;;
9007;SDS011;62813;51.424;6.762;2022-08-25T15:34:23;4.85;;;4.05;;
9007;SDS011;62813;51.424;6.762;2022-08-25T15:36:51;6.90;;;4.03;;
9007;SDS011;62813;51.424;6.762;2022-08-25T15:39:17;4.85;;;4.30;;
9007;SDS011;62813;51.424;6.762;2022-08-25T15:41:45;4.50;;;4.10;;
9007;SDS011;62813;51.424;6.762;2022-08-25T15:44:14;4.20;;;3.90;;
9007;SDS011;62813;51.424;6.762;2022-08-25T15:46:41;5.60;;;4.20;;
9007;SDS011;62813;51.424;6.762;2022-08-25T15:49:14;4.35;;;3.95;;
9007;SDS011;62813;51.424;6.762;2022-08-25T15:51:49;8.00;;;4.10;;
9007;SDS011;62813;51.424;6.762;2022-08-25T15:54:17;4.10;;;3.70;;
9007;SDS011;62813;51.424;6.762;2022-08-25T15:56:45;5.53;;;3.97;;
9007;SDS011;62813;51.424;6.762;2022-08-25T15:59:12;4.15;;;3.85;;
9007;SDS011;62813;51.424;6.762;2022-08-25T16:01:39;4.88;;;4.38;;
9007;SDS011;62813;51.424;6.762;2022-08-25T16:04:07;4.40;;;4.00;;
9007;SDS011;62813;51.424;6.762;2022-08-25T16:06:35;4.68;;;4.03;;
9007;SDS011;62813;51.424;6.762;2022-08-25T16:09:03;3.92;;;3.55;;
9007;SDS011;62813;51.424;6.762;2022-08-25T16:11:33;5.15;;;4.07;;
9007;SDS011;62813;51.424;6.762;2022-08-25T16:14:04;4.07;;;3.67;;
9007;SDS011;62813;51.424;6.762;2022-08-25T16:16:31;4.55;;;3.83;;
9007;SDS011;62813;51.424;6.762;2022-08-25T16:18:59;4.13;;;3.72;;
9007;SDS011;62813;51.424;6.762;2022-08-25T16:21:28;7.10;;;4.07;;
9007;SDS011;62813;51.424;6.762;2022-08-25T16:23:58;4.93;;;4.20;;
9007;SDS011;62813;51.424;6.762;2022-08-25T16:26:32;5.78;;;3.88;;
9007;SDS011;62813;51.424;6.762;2022-08-25T16:29:02;6.18;;;4.13;;
9007;SDS011;62813;51.424;6.762;2022-08-25T16:31:31;4.97;;;4.03;;
9007;SDS011;62813;51.424;6.762;2022-08-25T16:33:58;4.90;;;4.00;;
9007;SDS011;62813;51.424;6.762;2022-08-25T16:36:26;7.65;;;4.07;;
9007;SDS011;62813;51.424;6.762;2022-08-25T16:38:54;5.20;;;4.10;;
9007;SDS011;62813;51.424;6.762;2022-08-25T16:41:27;5.85;;;4.35;;
9007;SDS011;62813;51.424;6.762;2022-08-25T16:44:01;5.82;;;3.95;;
9007;SDS011;62813;51.424;6.762;2022-08-25T16:46:31;5.82;;;4.20;;
9007;SDS011;62813;51.424;6.762;2022-08-25T16:49:00;4.63;;;3.83;;
9007;SDS011;62813;51.424;6.762;2022-08-25T16:51:27;4.95;;;3.67;;
9007;SDS011;62813;51.424;6.762;2022-08-25T16:53:57;4.38;;;4.00;;
9007;SDS011;62813;51.424;6.762;2022-08-25T16:56:47;6.28;;;4.40;;
9007;SDS011;62813;51.424;6.762;2022-08-25T16:59:20;4.40;;;3.97;;
9007;SDS011;62813;51.424;6.762;2022-08-25T17:01:49;4.75;;;4.30;;
9007;SDS011;62813;51.424;6.762;2022-08-25T17:04:16;4.65;;;4.10;;
9007;SDS011;62813;51.424;6.762;2022-08-25T17:06:43;7.93;;;4.10;;
9007;SDS011;62813;51.424;6.762;2022-08-25T17:09:17;6.78;;;4.60;;
9007;SDS011;62813;51.424;6.762;2022-08-25T17:11:49;5.65;;;3.90;;
9007;SDS011;62813;51.424;6.762;2022-08-25T17:14:19;5.95;;;4.50;;
9007;SDS011;62813;51.424;6.762;2022-08-25T17:16:47;4.50;;;4.10;;
9007;SDS011;62813;51.424;6.762;2022-08-25T17:19:17;6.55;;;4.57;;
9007;SDS011;62813;51.424;6.762;2022-08-25T17:21:45;4.97;;;4.45;;
9007;SDS011;62813;51.424;6.762;2022-08-25T17:24:15;4.70;;;4.10;;
9007;SDS011;62813;51.424;6.762;2022-08-25T17:26:43;4.90;;;4.20;;
9007;SDS011;62813;51.424;6.762;2022-08-25T17:29:11;6.13;;;4.32;;
9007;SDS011;62813;51.424;6.762;2022-08-25T17:31:38;6.32;;;4.85;;
9007;SDS011;62813;51.424;6.762;2022-08-25T17:34:09;5.03;;;4.53;;
9007;SDS011;62813;51.424;6.762;2022-08-25T17:36:42;4.63;;;4.20;;
9007;SDS011;62813;51.424;6.762;2022-08-25T17:39:09;5.07;;;4.35;;
9007;SDS011;62813;51.424;6.762;2022-08-25T17:41:37;6.78;;;5.35;;
9007;SDS011;62813;51.424;6.762;2022-08-25T17:44:05;5.30;;;4.80;;